sensor_id;sensor_type;location;lat;lon;timestamp;temperature;humidity
24085;DHT22;12268;52.110;5.548;2023-03-24T00:01:01;12.80;99.90
24085;DHT22;12268;52.110;5.548;2023-03-24T00:03:28;12.80;99.90
24085;DHT22;12268;52.110;5.548;2023-03-24T00:05:58;12.90;99.90
24085;DHT22;12268;52.110;5.548;2023-03-24T00:08:30;12.80;99.90
24085;DHT22;12268;52.110;5.548;2023-03-24T00:11:04;12.70;99.90
24085;DHT22;12268;52.110;5.548;2023-03-24T00:13:31;12.90;99.90
24085;DHT22;12268;52.110;5.548;2023-03-24T00:15:57;12.90;99.90
24085;DHT22;12268;52.110;5.548;2023-03-24T00:18:23;12.90;99.90
24085;DHT22;12268;52.110;5.548;2023-03-24T00:20:53;12.90;99.90
24085;DHT22;12268;52.110;5.548;2023-03-24T00:23:27;12.90;99.90
24085;DHT22;12268;52.110;5.548;2023-03-24T00:28:30;12.90;99.90
24085;DHT22;12268;52.110;5.548;2023-03-24T00:30:58;13.00;99.90
24085;DHT22;12268;52.110;5.548;2023-03-24T00:33:23;13.00;99.90
24085;DHT22;12268;52.110;5.548;2023-03-24T00:35:49;12.90;99.90
24085;DHT22;12268;52.110;5.548;2023-03-24T00:38:15;12.80;99.90
24085;DHT22;12268;52.110;5.548;2023-03-24T00:40:45;12.70;99.90
24085;DHT22;12268;52.110;5.548;2023-03-24T00:43:12;12.80;99.90
24085;DHT22;12268;52.110;5.548;2023-03-24T00:45:38;12.80;99.90
24085;DHT22;12268;52.110;5.548;2023-03-24T00:48:13;12.80;99.90
24085;DHT22;12268;52.110;5.548;2023-03-24T00:50:44;12.90;99.90
24085;DHT22;12268;52.110;5.548;2023-03-24T00:53:12;12.80;99.90
24085;DHT22;12268;52.110;5.548;2023-03-24T00:55:40;12.80;99.90
24085;DHT22;12268;52.110;5.548;2023-03-24T01:00:31;12.80;99.90
24085;DHT22;12268;52.110;5.548;2023-03-24T01:02:57;12.90;99.90
24085;DHT22;12268;52.110;5.548;2023-03-24T01:05:25;13.00;99.90
24085;DHT22;12268;52.110;5.548;2023-03-24T01:07:55;13.10;99.90
24085;DHT22;12268;52.110;5.548;2023-03-24T01:10:22;13.10;99.90
24085;DHT22;12268;52.110;5.548;2023-03-24T01:12:54;13.00;99.90
24085;DHT22;12268;52.110;5.548;2023-03-24T01:15:22;13.00;99.90
24085;DHT22;12268;52.110;5.548;2023-03-24T01:17:49;12.90;99.90
24085;DHT22;12268;52.110;5.548;2023-03-24T01:20:15;12.90;99.90
24085;DHT22;12268;52.110;5.548;2023-03-24T01:22:42;12.90;99.90
24085;DHT22;12268;52.110;5.548;2023-03-24T01:25:18;12.90;99.90
24085;DHT22;12268;52.110;5.548;2023-03-24T01:27:45;13.00;99.90
24085;DHT22;12268;52.110;5.548;2023-03-24T01:30:13;13.00;99.90
24085;DHT22;12268;52.110;5.548;2023-03-24T01:32:39;13.00;99.90
24085;DHT22;12268;52.110;5.548;2023-03-24T01:35:06;13.10;99.90
24085;DHT22;12268;52.110;5.548;2023-03-24T01:37:31;13.00;99.90
24085;DHT22;12268;52.110;5.548;2023-03-24T01:39:57;13.00;99.90
24085;DHT22;12268;52.110;5.548;2023-03-24T01:42:24;13.20;99.90
24085;DHT22;12268;52.110;5.548;2023-03-24T01:44:53;13.10;99.90
24085;DHT22;12268;52.110;5.548;2023-03-24T01:47:21;13.00;99.90
24085;DHT22;12268;52.110;5.548;2023-03-24T01:49:53;13.10;99.90
24085;DHT22;12268;52.110;5.548;2023-03-24T01:52:33;13.10;99.90
24085;DHT22;12268;52.110;5.548;2023-03-24T01:55:04;13.20;99.90
24085;DHT22;12268;52.110;5.548;2023-03-24T01:57:38;13.20;99.90
24085;DHT22;12268;52.110;5.548;2023-03-24T02:00:11;13.10;99.90
24085;DHT22;12268;52.110;5.548;2023-03-24T02:02:41;13.10;99.90
24085;DHT22;12268;52.110;5.548;2023-03-24T02:05:09;13.20;99.90
24085;DHT22;12268;52.110;5.548;2023-03-24T02:07:49;13.20;99.90
24085;DHT22;12268;52.110;5.548;2023-03-24T02:10:18;13.20;99.90
24085;DHT22;12268;52.110;5.548;2023-03-24T02:12:45;13.30;99.90
24085;DHT22;12268;52.110;5.548;2023-03-24T02:15:13;13.40;99.90
24085;DHT22;12268;52.110;5.548;2023-03-24T02:18:01;13.30;99.90
24085;DHT22;12268;52.110;5.548;2023-03-24T02:23:55;13.10;99.90
24085;DHT22;12268;52.110;5.548;2023-03-24T02:29:36;13.20;99.90
24085;DHT22;12268;52.110;5.548;2023-03-24T02:42:14;13.30;99.90
24085;DHT22;12268;52.110;5.548;2023-03-24T02:44:26;13.40;99.90
24085;DHT22;12268;52.110;5.548;2023-03-24T02:49:57;12.90;99.90
24085;DHT22;12268;52.110;5.548;2023-03-24T02:55:03;12.60;99.90
24085;DHT22;12268;52.110;5.548;2023-03-24T02:57:51;12.50;99.90
24085;DHT22;12268;52.110;5.548;2023-03-24T03:00:25;12.60;99.90
24085;DHT22;12268;52.110;5.548;2023-03-24T03:02:58;12.50;99.90
24085;DHT22;12268;52.110;5.548;2023-03-24T03:05:43;12.50;99.90
24085;DHT22;12268;52.110;5.548;2023-03-24T03:08:13;12.50;99.90
24085;DHT22;12268;52.110;5.548;2023-03-24T03:10:43;12.50;99.90
24085;DHT22;12268;52.110;5.548;2023-03-24T03:13:15;12.50;99.90
24085;DHT22;12268;52.110;5.548;2023-03-24T03:15:45;12.50;99.90
24085;DHT22;12268;52.110;5.548;2023-03-24T03:18:26;12.40;99.90
24085;DHT22;12268;52.110;5.548;2023-03-24T03:20:58;12.30;99.90
24085;DHT22;12268;52.110;5.548;2023-03-24T03:23:32;12.40;99.90
24085;DHT22;12268;52.110;5.548;2023-03-24T03:26:01;12.50;99.90
24085;DHT22;12268;52.110;5.548;2023-03-24T03:28:32;12.60;99.90
24085;DHT22;12268;52.110;5.548;2023-03-24T03:31:04;12.60;99.90
24085;DHT22;12268;52.110;5.548;2023-03-24T03:33:37;12.40;99.90
24085;DHT22;12268;52.110;5.548;2023-03-24T03:38:43;12.20;99.90
24085;DHT22;12268;52.110;5.548;2023-03-24T03:41:09;12.10;99.90
24085;DHT22;12268;52.110;5.548;2023-03-24T03:43:35;12.00;99.90
24085;DHT22;12268;52.110;5.548;2023-03-24T03:46:02;11.90;99.90
24085;DHT22;12268;52.110;5.548;2023-03-24T03:48:30;11.80;99.90
24085;DHT22;12268;52.110;5.548;2023-03-24T03:50:56;11.80;99.90
24085;DHT22;12268;52.110;5.548;2023-03-24T03:53:27;11.70;99.90
24085;DHT22;12268;52.110;5.548;2023-03-24T03:55:54;11.80;99.90
24085;DHT22;12268;52.110;5.548;2023-03-24T03:58:21;11.80;99.90
24085;DHT22;12268;52.110;5.548;2023-03-24T04:00:47;11.80;99.90
24085;DHT22;12268;52.110;5.548;2023-03-24T04:13:52;11.60;99.90
24085;DHT22;12268;52.110;5.548;2023-03-24T04:19:25;11.50;99.90
24085;DHT22;12268;52.110;5.548;2023-03-24T04:24:54;11.30;99.90
24085;DHT22;12268;52.110;5.548;2023-03-24T04:27:37;11.20;99.90
24085;DHT22;12268;52.110;5.548;2023-03-24T04:30:47;11.20;99.90
24085;DHT22;12268;52.110;5.548;2023-03-24T04:33:48;11.10;99.90
24085;DHT22;12268;52.110;5.548;2023-03-24T04:38:54;10.90;99.90
24085;DHT22;12268;52.110;5.548;2023-03-24T04:41:24;10.90;99.90
24085;DHT22;12268;52.110;5.548;2023-03-24T04:43:52;11.00;99.90
24085;DHT22;12268;52.110;5.548;2023-03-24T04:46:19;11.10;99.90
24085;DHT22;12268;52.110;5.548;2023-03-24T04:48:46;11.00;99.90
24085;DHT22;12268;52.110;5.548;2023-03-24T04:51:16;11.00;99.90
24085;DHT22;12268;52.110;5.548;2023-03-24T04:53:43;10.90;99.90
24085;DHT22;12268;52.110;5.548;2023-03-24T04:58:43;11.00;99.90
24085;DHT22;12268;52.110;5.548;2023-03-24T05:01:09;11.10;99.90
24085;DHT22;12268;52.110;5.548;2023-03-24T05:03:34;11.10;99.90
24085;DHT22;12268;52.110;5.548;2023-03-24T05:06:02;11.00;99.90
24085;DHT22;12268;52.110;5.548;2023-03-24T05:08:30;10.90;99.90
24085;DHT22;12268;52.110;5.548;2023-03-24T05:10:57;10.90;99.90
24085;DHT22;12268;52.110;5.548;2023-03-24T05:13:22;10.90;99.90
24085;DHT22;12268;52.110;5.548;2023-03-24T05:15:48;11.00;99.90
24085;DHT22;12268;52.110;5.548;2023-03-24T05:18:13;11.00;99.90
24085;DHT22;12268;52.110;5.548;2023-03-24T05:20:39;11.00;99.90
24085;DHT22;12268;52.110;5.548;2023-03-24T05:23:05;11.00;99.90
24085;DHT22;12268;52.110;5.548;2023-03-24T05:25:32;11.00;99.90
24085;DHT22;12268;52.110;5.548;2023-03-24T05:27:57;11.00;99.90
24085;DHT22;12268;52.110;5.548;2023-03-24T05:30:23;11.10;99.90
24085;DHT22;12268;52.110;5.548;2023-03-24T05:32:49;11.20;99.90
24085;DHT22;12268;52.110;5.548;2023-03-24T05:35:15;11.20;99.90
24085;DHT22;12268;52.110;5.548;2023-03-24T05:37:40;11.00;99.90
24085;DHT22;12268;52.110;5.548;2023-03-24T05:40:06;11.10;99.90
24085;DHT22;12268;52.110;5.548;2023-03-24T05:42:32;11.10;99.90
24085;DHT22;12268;52.110;5.548;2023-03-24T05:44:57;11.20;99.90
24085;DHT22;12268;52.110;5.548;2023-03-24T05:47:23;11.20;99.90
24085;DHT22;12268;52.110;5.548;2023-03-24T05:49:48;11.20;99.90
24085;DHT22;12268;52.110;5.548;2023-03-24T05:52:16;11.10;99.90
24085;DHT22;12268;52.110;5.548;2023-03-24T05:54:42;11.00;99.90
24085;DHT22;12268;52.110;5.548;2023-03-24T05:57:14;11.00;99.90
24085;DHT22;12268;52.110;5.548;2023-03-24T05:59:40;11.10;99.90
24085;DHT22;12268;52.110;5.548;2023-03-24T06:02:06;11.10;99.90
24085;DHT22;12268;52.110;5.548;2023-03-24T06:04:32;11.20;99.90
24085;DHT22;12268;52.110;5.548;2023-03-24T06:06:58;11.30;99.90
24085;DHT22;12268;52.110;5.548;2023-03-24T06:09:28;11.30;99.90
24085;DHT22;12268;52.110;5.548;2023-03-24T06:11:58;11.30;99.90
24085;DHT22;12268;52.110;5.548;2023-03-24T06:14:23;11.40;99.90
24085;DHT22;12268;52.110;5.548;2023-03-24T06:16:50;11.40;99.90
24085;DHT22;12268;52.110;5.548;2023-03-24T06:19:17;11.50;99.90
24085;DHT22;12268;52.110;5.548;2023-03-24T06:21:43;11.50;99.90
24085;DHT22;12268;52.110;5.548;2023-03-24T06:24:15;11.50;99.90
24085;DHT22;12268;52.110;5.548;2023-03-24T06:26:40;11.60;99.90
24085;DHT22;12268;52.110;5.548;2023-03-24T06:29:09;11.60;99.90
24085;DHT22;12268;52.110;5.548;2023-03-24T06:31:34;11.80;99.90
24085;DHT22;12268;52.110;5.548;2023-03-24T06:34:02;11.80;99.90
24085;DHT22;12268;52.110;5.548;2023-03-24T06:36:28;11.80;99.90
24085;DHT22;12268;52.110;5.548;2023-03-24T06:38:53;11.80;99.90
24085;DHT22;12268;52.110;5.548;2023-03-24T06:41:19;11.70;99.90
24085;DHT22;12268;52.110;5.548;2023-03-24T06:43:45;11.70;99.90
24085;DHT22;12268;52.110;5.548;2023-03-24T06:46:10;11.70;99.90
24085;DHT22;12268;52.110;5.548;2023-03-24T06:48:36;11.80;99.90
24085;DHT22;12268;52.110;5.548;2023-03-24T06:51:03;11.70;99.90
24085;DHT22;12268;52.110;5.548;2023-03-24T06:53:29;11.70;99.90
24085;DHT22;12268;52.110;5.548;2023-03-24T06:55:54;11.70;99.90
24085;DHT22;12268;52.110;5.548;2023-03-24T06:58:20;11.90;99.90
24085;DHT22;12268;52.110;5.548;2023-03-24T07:00:46;12.00;99.90
24085;DHT22;12268;52.110;5.548;2023-03-24T07:03:13;11.90;99.90
24085;DHT22;12268;52.110;5.548;2023-03-24T07:05:41;12.00;99.90
24085;DHT22;12268;52.110;5.548;2023-03-24T07:08:08;12.00;99.90
24085;DHT22;12268;52.110;5.548;2023-03-24T11:19:20;13.70;99.90
24085;DHT22;12268;52.110;5.548;2023-03-24T11:21:46;13.60;99.90
24085;DHT22;12268;52.110;5.548;2023-03-24T11:24:15;13.80;99.90
24085;DHT22;12268;52.110;5.548;2023-03-24T11:26:53;13.90;99.90
24085;DHT22;12268;52.110;5.548;2023-03-24T11:29:21;14.00;99.90
24085;DHT22;12268;52.110;5.548;2023-03-24T11:32:02;14.30;99.90
24085;DHT22;12268;52.110;5.548;2023-03-24T11:34:37;14.40;99.90
24085;DHT22;12268;52.110;5.548;2023-03-24T11:37:24;14.90;99.90
24085;DHT22;12268;52.110;5.548;2023-03-24T11:42:44;16.30;99.90
24085;DHT22;12268;52.110;5.548;2023-03-24T11:47:46;15.50;99.90
24085;DHT22;12268;52.110;5.548;2023-03-24T11:50:18;15.10;99.90
24085;DHT22;12268;52.110;5.548;2023-03-24T12:01:05;14.00;99.90
24085;DHT22;12268;52.110;5.548;2023-03-24T12:06:39;13.80;99.90
24085;DHT22;12268;52.110;5.548;2023-03-24T12:17:23;15.50;99.90
24085;DHT22;12268;52.110;5.548;2023-03-24T12:34:02;15.30;99.90
24085;DHT22;12268;52.110;5.548;2023-03-24T12:39:11;16.50;99.90
24085;DHT22;12268;52.110;5.548;2023-03-24T12:44:31;17.40;99.90
24085;DHT22;12268;52.110;5.548;2023-03-24T12:53:27;16.10;99.90
24085;DHT22;12268;52.110;5.548;2023-03-24T12:55:58;16.20;99.90
24085;DHT22;12268;52.110;5.548;2023-03-24T13:01:02;15.70;99.90
24085;DHT22;12268;52.110;5.548;2023-03-24T13:03:46;15.30;99.90
24085;DHT22;12268;52.110;5.548;2023-03-24T13:06:29;14.70;99.90
24085;DHT22;12268;52.110;5.548;2023-03-24T13:11:35;14.40;99.90
24085;DHT22;12268;52.110;5.548;2023-03-24T13:14:03;14.90;99.90
24085;DHT22;12268;52.110;5.548;2023-03-24T13:16:33;14.80;99.90
24085;DHT22;12268;52.110;5.548;2023-03-24T13:19:00;14.20;99.90
24085;DHT22;12268;52.110;5.548;2023-03-24T13:21:27;14.10;99.90
24085;DHT22;12268;52.110;5.548;2023-03-24T13:24:08;13.80;99.90
24085;DHT22;12268;52.110;5.548;2023-03-24T13:26:42;13.30;99.90
24085;DHT22;12268;52.110;5.548;2023-03-24T13:35:05;12.90;99.90
24085;DHT22;12268;52.110;5.548;2023-03-24T13:37:38;12.90;99.90
24085;DHT22;12268;52.110;5.548;2023-03-24T13:40:10;13.10;99.90
24085;DHT22;12268;52.110;5.548;2023-03-24T13:42:46;13.40;99.90
24085;DHT22;12268;52.110;5.548;2023-03-24T13:48:17;14.00;99.90
24085;DHT22;12268;52.110;5.548;2023-03-24T13:53:50;15.20;99.90
24085;DHT22;12268;52.110;5.548;2023-03-24T13:56:38;15.10;99.90
24085;DHT22;12268;52.110;5.548;2023-03-24T14:15:48;13.40;99.90
24085;DHT22;12268;52.110;5.548;2023-03-24T14:21:05;13.30;99.90
24085;DHT22;12268;52.110;5.548;2023-03-24T14:23:41;12.80;99.90
24085;DHT22;12268;52.110;5.548;2023-03-24T14:26:15;12.50;99.90
24085;DHT22;12268;52.110;5.548;2023-03-24T14:28:54;12.40;99.90
24085;DHT22;12268;52.110;5.548;2023-03-24T14:31:23;12.50;99.90
24085;DHT22;12268;52.110;5.548;2023-03-24T14:36:19;13.50;99.90
24085;DHT22;12268;52.110;5.548;2023-03-24T14:38:49;13.40;99.90
24085;DHT22;12268;52.110;5.548;2023-03-24T14:41:25;13.50;99.90
24085;DHT22;12268;52.110;5.548;2023-03-24T14:43:53;13.40;99.90
24085;DHT22;12268;52.110;5.548;2023-03-24T14:49:01;13.90;99.90
24085;DHT22;12268;52.110;5.548;2023-03-24T14:51:35;14.30;99.90
24085;DHT22;12268;52.110;5.548;2023-03-24T14:54:15;14.30;99.90
24085;DHT22;12268;52.110;5.548;2023-03-24T14:56:43;14.10;99.90
24085;DHT22;12268;52.110;5.548;2023-03-24T14:59:26;14.10;99.90
24085;DHT22;12268;52.110;5.548;2023-03-24T15:08:12;14.70;99.90
24085;DHT22;12268;52.110;5.548;2023-03-24T15:13:27;14.60;99.90
24085;DHT22;12268;52.110;5.548;2023-03-24T15:15:53;14.60;99.90
24085;DHT22;12268;52.110;5.548;2023-03-24T15:18:19;14.50;99.90
24085;DHT22;12268;52.110;5.548;2023-03-24T15:20:47;14.50;99.90
24085;DHT22;12268;52.110;5.548;2023-03-24T15:23:18;14.40;99.90
24085;DHT22;12268;52.110;5.548;2023-03-24T15:25:44;14.40;99.90
24085;DHT22;12268;52.110;5.548;2023-03-24T15:28:26;14.30;99.90
24085;DHT22;12268;52.110;5.548;2023-03-24T15:30:53;14.00;99.90
24085;DHT22;12268;52.110;5.548;2023-03-24T15:33:20;14.00;99.90
24085;DHT22;12268;52.110;5.548;2023-03-24T15:35:46;14.10;99.90
24085;DHT22;12268;52.110;5.548;2023-03-24T15:38:20;14.30;99.90
24085;DHT22;12268;52.110;5.548;2023-03-24T15:40:59;14.40;99.90
24085;DHT22;12268;52.110;5.548;2023-03-24T15:43:26;14.50;99.90
24085;DHT22;12268;52.110;5.548;2023-03-24T15:45:54;14.50;99.90
24085;DHT22;12268;52.110;5.548;2023-03-24T15:48:23;14.40;99.90
24085;DHT22;12268;52.110;5.548;2023-03-24T15:50:58;14.40;99.90
24085;DHT22;12268;52.110;5.548;2023-03-24T15:53:37;14.30;99.90
24085;DHT22;12268;52.110;5.548;2023-03-24T15:56:29;14.20;99.90
24085;DHT22;12268;52.110;5.548;2023-03-24T16:01:35;14.10;99.90
24085;DHT22;12268;52.110;5.548;2023-03-24T16:04:16;14.10;99.90
24085;DHT22;12268;52.110;5.548;2023-03-24T16:06:47;14.00;99.90
24085;DHT22;12268;52.110;5.548;2023-03-24T16:09:15;14.00;99.90
24085;DHT22;12268;52.110;5.548;2023-03-24T16:11:46;14.00;99.90
24085;DHT22;12268;52.110;5.548;2023-03-24T16:14:23;14.00;99.90
24085;DHT22;12268;52.110;5.548;2023-03-24T16:16:58;14.20;99.90
24085;DHT22;12268;52.110;5.548;2023-03-24T16:19:24;14.30;99.90
24085;DHT22;12268;52.110;5.548;2023-03-24T16:21:50;14.20;99.90
24085;DHT22;12268;52.110;5.548;2023-03-24T16:24:16;14.10;99.90
24085;DHT22;12268;52.110;5.548;2023-03-24T16:26:41;14.00;99.90
24085;DHT22;12268;52.110;5.548;2023-03-24T16:29:16;13.80;99.90
24085;DHT22;12268;52.110;5.548;2023-03-24T16:31:46;13.70;99.90
24085;DHT22;12268;52.110;5.548;2023-03-24T16:34:16;13.60;99.90
24085;DHT22;12268;52.110;5.548;2023-03-24T16:36:47;13.50;99.90
24085;DHT22;12268;52.110;5.548;2023-03-24T16:39:15;13.70;99.90
24085;DHT22;12268;52.110;5.548;2023-03-24T16:41:41;13.70;99.90
24085;DHT22;12268;52.110;5.548;2023-03-24T16:44:07;13.90;99.90
24085;DHT22;12268;52.110;5.548;2023-03-24T16:46:33;13.90;99.90
24085;DHT22;12268;52.110;5.548;2023-03-24T16:49:01;14.00;99.90
24085;DHT22;12268;52.110;5.548;2023-03-24T16:51:26;14.00;99.90
24085;DHT22;12268;52.110;5.548;2023-03-24T16:53:54;14.10;99.90
24085;DHT22;12268;52.110;5.548;2023-03-24T16:56:21;14.10;99.90
24085;DHT22;12268;52.110;5.548;2023-03-24T16:58:48;13.90;99.90
24085;DHT22;12268;52.110;5.548;2023-03-24T17:03:53;13.40;99.90
24085;DHT22;12268;52.110;5.548;2023-03-24T17:06:19;13.00;99.90
24085;DHT22;12268;52.110;5.548;2023-03-24T17:08:45;12.90;99.90
24085;DHT22;12268;52.110;5.548;2023-03-24T17:11:11;12.90;99.90
24085;DHT22;12268;52.110;5.548;2023-03-24T17:13:37;13.00;99.90
24085;DHT22;12268;52.110;5.548;2023-03-24T17:16:02;13.10;99.90
24085;DHT22;12268;52.110;5.548;2023-03-24T17:18:28;13.30;99.90
24085;DHT22;12268;52.110;5.548;2023-03-24T17:20:54;13.20;99.90
24085;DHT22;12268;52.110;5.548;2023-03-24T17:23:19;13.10;99.90
24085;DHT22;12268;52.110;5.548;2023-03-24T17:25:46;13.00;99.90
24085;DHT22;12268;52.110;5.548;2023-03-24T17:28:13;13.00;99.90
24085;DHT22;12268;52.110;5.548;2023-03-24T17:30:39;12.90;99.90
24085;DHT22;12268;52.110;5.548;2023-03-24T17:33:04;13.00;99.90
24085;DHT22;12268;52.110;5.548;2023-03-24T17:35:31;13.20;99.90
24085;DHT22;12268;52.110;5.548;2023-03-24T17:37:56;13.40;99.90
24085;DHT22;12268;52.110;5.548;2023-03-24T17:40:24;13.50;99.90
24085;DHT22;12268;52.110;5.548;2023-03-24T19:03:22;13.40;99.90
24085;DHT22;12268;52.110;5.548;2023-03-24T19:05:49;13.40;99.90
24085;DHT22;12268;52.110;5.548;2023-03-24T19:08:18;13.20;99.90
24085;DHT22;12268;52.110;5.548;2023-03-24T19:10:43;12.80;99.90
24085;DHT22;12268;52.110;5.548;2023-03-24T19:13:13;12.70;99.90
24085;DHT22;12268;52.110;5.548;2023-03-24T19:15:40;12.50;99.90
24085;DHT22;12268;52.110;5.548;2023-03-24T19:18:06;12.50;99.90
24085;DHT22;12268;52.110;5.548;2023-03-24T19:20:32;12.40;99.90
24085;DHT22;12268;52.110;5.548;2023-03-24T19:22:59;12.30;99.90
24085;DHT22;12268;52.110;5.548;2023-03-24T19:25:25;12.10;99.90
24085;DHT22;12268;52.110;5.548;2023-03-24T19:27:51;12.20;99.90
24085;DHT22;12268;52.110;5.548;2023-03-24T19:30:16;12.20;99.90
24085;DHT22;12268;52.110;5.548;2023-03-24T19:32:43;12.20;99.90
24085;DHT22;12268;52.110;5.548;2023-03-24T19:35:09;12.10;99.90
24085;DHT22;12268;52.110;5.548;2023-03-24T19:37:34;12.00;99.90
24085;DHT22;12268;52.110;5.548;2023-03-24T19:40:01;12.00;99.90
24085;DHT22;12268;52.110;5.548;2023-03-24T19:42:29;12.00;99.90
24085;DHT22;12268;52.110;5.548;2023-03-24T19:44:55;12.00;99.90
24085;DHT22;12268;52.110;5.548;2023-03-24T19:47:21;12.10;99.90
24085;DHT22;12268;52.110;5.548;2023-03-24T19:49:47;12.10;99.90
24085;DHT22;12268;52.110;5.548;2023-03-24T19:52:13;12.10;99.90
24085;DHT22;12268;52.110;5.548;2023-03-24T19:54:39;12.20;99.90
24085;DHT22;12268;52.110;5.548;2023-03-24T19:57:05;12.30;99.90
24085;DHT22;12268;52.110;5.548;2023-03-24T19:59:31;12.30;99.90
24085;DHT22;12268;52.110;5.548;2023-03-24T20:01:56;12.50;99.90
24085;DHT22;12268;52.110;5.548;2023-03-24T20:04:22;12.40;99.90
24085;DHT22;12268;52.110;5.548;2023-03-24T20:06:51;12.30;99.90
24085;DHT22;12268;52.110;5.548;2023-03-24T20:09:16;12.30;99.90
24085;DHT22;12268;52.110;5.548;2023-03-24T20:11:42;12.20;99.90
24085;DHT22;12268;52.110;5.548;2023-03-24T20:14:08;12.10;99.90
24085;DHT22;12268;52.110;5.548;2023-03-24T20:16:34;11.90;99.90
24085;DHT22;12268;52.110;5.548;2023-03-24T20:18:59;11.90;99.90
24085;DHT22;12268;52.110;5.548;2023-03-24T20:21:25;12.10;99.90
24085;DHT22;12268;52.110;5.548;2023-03-24T20:23:53;12.20;99.90
24085;DHT22;12268;52.110;5.548;2023-03-24T20:26:19;12.10;99.90
24085;DHT22;12268;52.110;5.548;2023-03-24T20:28:45;12.10;99.90
24085;DHT22;12268;52.110;5.548;2023-03-24T20:31:11;12.00;99.90
24085;DHT22;12268;52.110;5.548;2023-03-24T20:33:37;12.00;99.90
24085;DHT22;12268;52.110;5.548;2023-03-24T20:36:03;12.00;99.90
24085;DHT22;12268;52.110;5.548;2023-03-24T20:38:29;11.80;99.90
24085;DHT22;12268;52.110;5.548;2023-03-24T20:41:03;11.90;99.90
24085;DHT22;12268;52.110;5.548;2023-03-24T20:43:30;11.80;99.90
24085;DHT22;12268;52.110;5.548;2023-03-24T20:46:03;11.80;99.90
24085;DHT22;12268;52.110;5.548;2023-03-24T20:48:29;11.90;99.90
24085;DHT22;12268;52.110;5.548;2023-03-24T20:50:55;11.90;99.90
24085;DHT22;12268;52.110;5.548;2023-03-24T20:53:21;11.80;99.90
24085;DHT22;12268;52.110;5.548;2023-03-24T20:56:00;11.70;99.90
24085;DHT22;12268;52.110;5.548;2023-03-24T20:58:28;11.70;99.90
24085;DHT22;12268;52.110;5.548;2023-03-24T21:00:55;11.70;99.90
24085;DHT22;12268;52.110;5.548;2023-03-24T21:03:22;11.50;99.90
24085;DHT22;12268;52.110;5.548;2023-03-24T21:05:48;11.40;99.90
24085;DHT22;12268;52.110;5.548;2023-03-24T21:08:14;11.30;99.90
24085;DHT22;12268;52.110;5.548;2023-03-24T21:10:39;11.40;99.90
24085;DHT22;12268;52.110;5.548;2023-03-24T21:13:09;11.30;99.90
24085;DHT22;12268;52.110;5.548;2023-03-24T21:15:44;11.20;99.90
24085;DHT22;12268;52.110;5.548;2023-03-24T21:18:09;11.20;99.90
24085;DHT22;12268;52.110;5.548;2023-03-24T21:20:35;11.20;99.90
24085;DHT22;12268;52.110;5.548;2023-03-24T21:23:01;11.30;99.90
24085;DHT22;12268;52.110;5.548;2023-03-24T21:25:30;11.30;99.90
24085;DHT22;12268;52.110;5.548;2023-03-24T21:27:57;11.40;99.90
24085;DHT22;12268;52.110;5.548;2023-03-24T21:30:24;11.50;99.90
24085;DHT22;12268;52.110;5.548;2023-03-24T21:32:52;11.50;99.90
24085;DHT22;12268;52.110;5.548;2023-03-24T21:35:18;11.50;99.90
24085;DHT22;12268;52.110;5.548;2023-03-24T21:37:45;11.50;99.90
24085;DHT22;12268;52.110;5.548;2023-03-24T21:40:22;11.40;99.90
24085;DHT22;12268;52.110;5.548;2023-03-24T21:42:48;11.40;99.90
24085;DHT22;12268;52.110;5.548;2023-03-24T21:45:16;11.30;99.90
24085;DHT22;12268;52.110;5.548;2023-03-24T21:47:43;11.40;99.90
24085;DHT22;12268;52.110;5.548;2023-03-24T21:50:11;11.20;99.90
24085;DHT22;12268;52.110;5.548;2023-03-24T21:52:37;11.40;99.90
24085;DHT22;12268;52.110;5.548;2023-03-24T21:55:07;11.60;99.90
24085;DHT22;12268;52.110;5.548;2023-03-24T21:57:35;11.70;99.90
24085;DHT22;12268;52.110;5.548;2023-03-24T22:00:00;11.90;99.90
24085;DHT22;12268;52.110;5.548;2023-03-24T22:02:27;12.20;99.90
24085;DHT22;12268;52.110;5.548;2023-03-24T22:04:55;12.20;99.90
24085;DHT22;12268;52.110;5.548;2023-03-24T22:07:26;12.10;99.90
24085;DHT22;12268;52.110;5.548;2023-03-24T22:10:02;12.00;99.90
24085;DHT22;12268;52.110;5.548;2023-03-24T22:12:30;12.00;99.90
24085;DHT22;12268;52.110;5.548;2023-03-24T22:14:56;11.90;99.90
24085;DHT22;12268;52.110;5.548;2023-03-24T22:17:21;11.90;99.90
24085;DHT22;12268;52.110;5.548;2023-03-24T22:19:47;12.00;99.90
24085;DHT22;12268;52.110;5.548;2023-03-24T22:22:12;11.80;99.90
24085;DHT22;12268;52.110;5.548;2023-03-24T22:24:38;11.80;99.90
24085;DHT22;12268;52.110;5.548;2023-03-24T22:27:03;11.60;99.90
24085;DHT22;12268;52.110;5.548;2023-03-24T22:29:29;11.50;99.90
24085;DHT22;12268;52.110;5.548;2023-03-24T22:31:55;11.50;99.90
24085;DHT22;12268;52.110;5.548;2023-03-24T22:34:20;11.40;99.90
24085;DHT22;12268;52.110;5.548;2023-03-24T22:36:46;11.30;99.90
24085;DHT22;12268;52.110;5.548;2023-03-24T22:39:11;11.50;99.90
24085;DHT22;12268;52.110;5.548;2023-03-24T22:41:37;11.40;99.90
24085;DHT22;12268;52.110;5.548;2023-03-24T22:44:03;11.40;99.90
24085;DHT22;12268;52.110;5.548;2023-03-24T22:46:28;11.40;99.90
24085;DHT22;12268;52.110;5.548;2023-03-24T22:48:54;11.50;99.90
24085;DHT22;12268;52.110;5.548;2023-03-24T22:51:19;11.50;99.90
24085;DHT22;12268;52.110;5.548;2023-03-24T22:53:45;11.50;99.90
24085;DHT22;12268;52.110;5.548;2023-03-24T22:56:11;11.50;99.90
24085;DHT22;12268;52.110;5.548;2023-03-24T22:58:37;11.60;99.90
24085;DHT22;12268;52.110;5.548;2023-03-24T23:01:04;11.30;99.90
24085;DHT22;12268;52.110;5.548;2023-03-24T23:03:31;11.30;99.90
24085;DHT22;12268;52.110;5.548;2023-03-24T23:05:58;11.20;99.90
24085;DHT22;12268;52.110;5.548;2023-03-24T23:08:26;11.30;99.90
24085;DHT22;12268;52.110;5.548;2023-03-24T23:10:54;11.30;99.90
24085;DHT22;12268;52.110;5.548;2023-03-24T23:13:20;11.30;99.90
24085;DHT22;12268;52.110;5.548;2023-03-24T23:15:47;11.50;99.90
24085;DHT22;12268;52.110;5.548;2023-03-24T23:18:13;11.30;99.90
24085;DHT22;12268;52.110;5.548;2023-03-24T23:20:39;11.30;99.90
24085;DHT22;12268;52.110;5.548;2023-03-24T23:23:06;11.50;99.90
24085;DHT22;12268;52.110;5.548;2023-03-24T23:25:32;11.40;99.90
24085;DHT22;12268;52.110;5.548;2023-03-24T23:28:00;11.50;99.90
24085;DHT22;12268;52.110;5.548;2023-03-24T23:30:26;11.50;99.90
24085;DHT22;12268;52.110;5.548;2023-03-24T23:32:52;11.40;99.90
24085;DHT22;12268;52.110;5.548;2023-03-24T23:35:17;11.40;99.90
24085;DHT22;12268;52.110;5.548;2023-03-24T23:37:43;11.40;99.90
24085;DHT22;12268;52.110;5.548;2023-03-24T23:40:11;11.40;99.90
24085;DHT22;12268;52.110;5.548;2023-03-24T23:42:43;11.40;99.90
24085;DHT22;12268;52.110;5.548;2023-03-24T23:45:10;11.50;99.90
24085;DHT22;12268;52.110;5.548;2023-03-24T23:47:39;11.40;99.90